Time;durP1;ratioP1;P1;durP2;ratioP2;P2;SDS_P1;SDS_P2;PMS_P1;PMS_P2;Temp;Humidity;BMP_temperature;BMP_pressure;BME280_temperature;BME280_humidity;BME280_pressure;Samples;Min_cycle;Max_cycle;Signal;HPM_P1;HPM_P2
2023/01/20 00:00:51;;;;;;;;;;;17.80;99.90;;;;;;5013263;28;19913;-73
2023/01/20 00:03:17;;;;;;;;;;;17.80;99.90;;;;;;5013188;28;20291;-82
2023/01/20 00:05:50;;;;;;;;;;;17.90;99.90;;;;;;5013370;28;19918;-82
2023/01/20 00:08:17;;;;;;;;;;;17.90;99.90;;;;;;5012840;28;19960;-78
2023/01/20 00:10:44;;;;;;;;;;;17.70;99.90;;;;;;5012288;28;19913;-78
2023/01/20 00:13:10;;;;;;;;;;;17.70;99.90;;;;;;5013273;28;19932;-71
2023/01/20 00:15:37;;;;;;;;;;;17.80;99.90;;;;;;5012899;28;19915;-80
2023/01/20 00:18:04;;;;;;;;;;;17.90;99.90;;;;;;5012854;28;19910;-79
2023/01/20 00:20:30;;;;;;;;;;;17.90;99.90;;;;;;5013048;28;19996;-81
2023/01/20 00:22:57;;;;;;;;;;;18.00;99.90;;;;;;5017551;28;19987;-71
2023/01/20 00:25:23;;;;;;;;;;;18.10;99.90;;;;;;5014768;28;20364;-70
2023/01/20 00:27:54;;;;;;;;;;;18.20;99.90;;;;;;5012856;28;19918;-80
2023/01/20 00:30:20;;;;;;;;;;;18.10;99.90;;;;;;5012123;28;20350;-80
2023/01/20 00:32:47;;;;;;;;;;;18.20;99.90;;;;;;5013253;28;19913;-81
2023/01/20 00:35:14;;;;;;;;;;;18.30;99.90;;;;;;5012976;28;19916;-68
2023/01/20 00:37:42;;;;;;;;;;;18.20;99.90;;;;;;5012831;28;19909;-79
2023/01/20 00:40:09;;;;;;;;;;;18.10;99.90;;;;;;5013221;28;19956;-76
2023/01/20 00:42:35;;;;;;;;;;;17.90;99.90;;;;;;5013091;28;19992;-71
2023/01/20 00:45:02;;;;;;;;;;;18.00;99.90;;;;;;5012349;28;20443;-76
2023/01/20 00:47:29;;;;;;;;;;;18.00;99.90;;;;;;5012306;28;20580;-73
2023/01/20 00:49:55;;;;;;;;;;;18.10;99.90;;;;;;5013204;28;19913;-75
2023/01/20 00:52:22;;;;;;;;;;;18.20;99.90;;;;;;5013141;28;19909;-80
2023/01/20 00:54:49;;;;;;;;;;;18.00;99.90;;;;;;5012986;28;20360;-77
2023/01/20 00:57:15;;;;;;;;;;;18.10;99.90;;;;;;5012863;28;20000;-73
2023/01/20 00:59:42;;;;;;;;;;;18.10;99.90;;;;;;5012419;28;19999;-78
2023/01/20 01:02:09;;;;;;;;;;;18.20;99.90;;;;;;5015895;28;20312;-72
2023/01/20 01:04:35;;;;;;;;;;;18.10;99.90;;;;;;5016941;28;20375;-79
2023/01/20 01:07:02;;;;;;;;;;;18.20;99.90;;;;;;5016802;28;20390;-81
2023/01/20 01:09:29;;;;;;;;;;;18.20;99.90;;;;;;5017336;28;20051;-80
2023/01/20 01:11:55;;;;;;;;;;;18.30;99.90;;;;;;5017365;28;19941;-80
2023/01/20 01:14:22;;;;;;;;;;;18.20;99.90;;;;;;5016894;28;19913;-80
2023/01/20 01:16:48;;;;;;;;;;;18.30;99.90;;;;;;5016390;28;19913;-80
2023/01/20 01:19:17;;;;;;;;;;;18.40;99.90;;;;;;5018487;28;20613;-65
2023/01/20 01:21:43;;;;;;;;;;;18.40;99.90;;;;;;5016567;28;19913;-80
2023/01/20 01:24:10;;;;;;;;;;;18.60;99.90;;;;;;5030983;28;19917;-67
2023/01/20 01:26:37;;;;;;;;;;;18.70;99.90;;;;;;5035903;28;19936;-66
2023/01/20 01:29:03;;;;;;;;;;;18.70;99.90;;;;;;5032088;28;20001;-66
2023/01/20 01:31:30;;;;;;;;;;;18.80;99.90;;;;;;5016200;28;19917;-66
2023/01/20 01:33:56;;;;;;;;;;;18.80;99.90;;;;;;5015822;28;19921;-69
2023/01/20 01:36:23;;;;;;;;;;;18.90;99.90;;;;;;5015510;28;19909;-65
2023/01/20 01:38:50;;;;;;;;;;;19.00;99.90;;;;;;5015824;28;19992;-66
2023/01/20 01:41:16;;;;;;;;;;;19.00;99.90;;;;;;5015895;28;19944;-71
2023/01/20 01:43:59;;;;;;;;;;;19.00;99.90;;;;;;5015089;28;19918;-66
2023/01/20 01:46:26;;;;;;;;;;;19.10;99.90;;;;;;5015368;28;19921;-65
2023/01/20 01:48:53;;;;;;;;;;;19.10;99.90;;;;;;5015831;28;19955;-66
2023/01/20 01:51:24;;;;;;;;;;;19.00;99.90;;;;;;5015592;28;19917;-66
2023/01/20 01:53:56;;;;;;;;;;;19.10;99.90;;;;;;5015381;28;19917;-65
2023/01/20 01:56:24;;;;;;;;;;;19.10;99.90;;;;;;5015325;28;19909;-65
2023/01/20 01:58:53;;;;;;;;;;;19.40;99.90;;;;;;5014867;28;19917;-66
2023/01/20 02:01:20;;;;;;;;;;;19.50;99.90;;;;;;5015025;28;19914;-66
2023/01/20 02:03:49;;;;;;;;;;;19.60;99.90;;;;;;5015319;28;20328;-65
2023/01/20 02:06:17;;;;;;;;;;;19.70;99.90;;;;;;5015025;28;19910;-67
2023/01/20 02:08:43;;;;;;;;;;;19.70;99.90;;;;;;5015124;28;19909;-66
2023/01/20 02:11:10;;;;;;;;;;;19.80;99.90;;;;;;5015231;28;20000;-65
2023/01/20 02:13:37;;;;;;;;;;;19.70;99.90;;;;;;5013061;28;20247;-66
2023/01/20 02:16:29;;;;;;;;;;;19.70;99.90;;;;;;5014915;28;19952;-66
2023/01/20 02:18:58;;;;;;;;;;;19.70;99.90;;;;;;5015035;28;19909;-66
2023/01/20 02:21:38;;;;;;;;;;;19.70;99.90;;;;;;5014685;28;19909;-64
2023/01/20 02:24:17;;;;;;;;;;;20.00;99.90;;;;;;5028603;28;19917;-64
2023/01/20 02:26:49;;;;;;;;;;;20.00;99.90;;;;;;5034233;28;20408;-64
2023/01/20 02:29:23;;;;;;;;;;;20.00;99.90;;;;;;5020560;28;19913;-64
2023/01/20 02:32:10;;;;;;;;;;;19.90;99.90;;;;;;5014637;28;19960;-64
2023/01/20 02:34:43;;;;;;;;;;;19.80;99.90;;;;;;5014455;28;19968;-64
2023/01/20 02:37:10;;;;;;;;;;;19.80;99.90;;;;;;5014148;28;20368;-65
2023/01/20 02:39:58;;;;;;;;;;;19.80;99.90;;;;;;5014207;28;19924;-64
2023/01/20 02:42:30;;;;;;;;;;;19.70;99.90;;;;;;5014406;28;19914;-64
2023/01/20 02:45:06;;;;;;;;;;;19.60;99.90;;;;;;5014283;28;19952;-64
2023/01/20 02:47:37;;;;;;;;;;;19.60;99.90;;;;;;5013721;28;19967;-64
2023/01/20 02:50:07;;;;;;;;;;;19.50;99.90;;;;;;5014134;28;19910;-65
2023/01/20 02:52:44;;;;;;;;;;;19.50;99.90;;;;;;5013998;28;19910;-65
2023/01/20 02:55:15;;;;;;;;;;;19.50;99.90;;;;;;5014537;28;19917;-65
2023/01/20 02:57:47;;;;;;;;;;;19.50;99.90;;;;;;5013260;28;19964;-65
2023/01/20 03:00:19;;;;;;;;;;;19.40;99.90;;;;;;5013430;28;19926;-65
2023/01/20 03:02:47;;;;;;;;;;;19.40;99.90;;;;;;4994647;28;19946;-65
2023/01/20 03:05:17;;;;;;;;;;;19.50;99.90;;;;;;4994497;28;20581;-65
2023/01/20 03:07:45;;;;;;;;;;;19.50;99.90;;;;;;4976853;28;20258;-65
2023/01/20 03:10:14;;;;;;;;;;;19.50;99.90;;;;;;4994611;28;19910;-65
2023/01/20 03:12:41;;;;;;;;;;;19.60;99.90;;;;;;4999891;28;19936;-65
2023/01/20 03:15:08;;;;;;;;;;;19.60;99.90;;;;;;5013983;28;20292;-65
2023/01/20 03:17:35;;;;;;;;;;;19.80;99.90;;;;;;5013206;28;19916;-65
2023/01/20 03:20:02;;;;;;;;;;;19.80;99.90;;;;;;5013940;28;19909;-65
2023/01/20 03:22:30;;;;;;;;;;;19.90;99.90;;;;;;5014804;28;19909;-65
2023/01/20 03:24:58;;;;;;;;;;;19.90;99.90;;;;;;5033180;28;19926;-65
2023/01/20 03:27:25;;;;;;;;;;;20.00;99.90;;;;;;5026099;28;20368;-66
2023/01/20 03:29:52;;;;;;;;;;;20.00;99.90;;;;;;5013115;28;19921;-65
2023/01/20 03:32:24;;;;;;;;;;;20.10;99.90;;;;;;5012799;28;19909;-66
2023/01/20 03:34:52;;;;;;;;;;;20.20;99.90;;;;;;5013120;28;19913;-65
2023/01/20 03:37:19;;;;;;;;;;;20.50;99.90;;;;;;5013298;28;20004;-64
2023/01/20 03:39:46;;;;;;;;;;;20.50;99.90;;;;;;5013493;28;19910;-65
2023/01/20 03:42:21;;;;;;;;;;;20.50;99.90;;;;;;5013785;28;19910;-65
2023/01/20 03:44:56;;;;;;;;;;;20.70;99.90;;;;;;5013476;28;19929;-65
2023/01/20 03:47:41;;;;;;;;;;;20.80;99.90;;;;;;5012718;28;19913;-64
2023/01/20 03:50:17;;;;;;;;;;;20.80;99.90;;;;;;5013156;28;19914;-65
2023/01/20 03:52:52;;;;;;;;;;;20.80;99.90;;;;;;5013252;28;19913;-65
2023/01/20 03:55:19;;;;;;;;;;;20.70;99.90;;;;;;5013202;28;19913;-68
2023/01/20 03:57:50;;;;;;;;;;;20.60;99.90;;;;;;5012845;28;19913;-64
2023/01/20 04:00:19;;;;;;;;;;;20.50;99.90;;;;;;5012988;28;19933;-66
2023/01/20 04:02:46;;;;;;;;;;;20.40;99.90;;;;;;5012419;28;20374;-65
2023/01/20 04:05:13;;;;;;;;;;;20.20;99.90;;;;;;5013011;28;19945;-66
2023/01/20 04:07:40;;;;;;;;;;;20.00;99.90;;;;;;5012726;28;19972;-65
2023/01/20 04:10:20;;;;;;;;;;;19.80;99.90;;;;;;5013228;28;19945;-65
2023/01/20 04:12:46;;;;;;;;;;;19.50;99.90;;;;;;5013309;28;19932;-65
2023/01/20 04:15:13;;;;;;;;;;;19.50;99.90;;;;;;5012724;28;20300;-65
2023/01/20 04:17:40;;;;;;;;;;;19.50;99.90;;;;;;5011793;28;19913;-65
2023/01/20 04:20:09;;;;;;;;;;;19.40;99.90;;;;;;5012878;28;19914;-64
2023/01/20 04:22:41;;;;;;;;;;;19.50;99.90;;;;;;5014395;28;20000;-65
2023/01/20 04:25:20;;;;;;;;;;;19.50;99.90;;;;;;5032655;28;19920;-65
2023/01/20 04:27:46;;;;;;;;;;;19.60;99.90;;;;;;5032394;28;19955;-69
2023/01/20 04:30:13;;;;;;;;;;;19.70;99.90;;;;;;5032828;28;19975;-67
2023/01/20 04:32:40;;;;;;;;;;;20.00;99.90;;;;;;5013078;28;20353;-65
2023/01/20 04:35:07;;;;;;;;;;;20.20;99.90;;;;;;5012944;28;20349;-65
2023/01/20 04:37:33;;;;;;;;;;;20.40;99.90;;;;;;5015337;28;19909;-64
2023/01/20 04:40:00;;;;;;;;;;;20.50;99.90;;;;;;5016536;28;20352;-65
2023/01/20 04:42:27;;;;;;;;;;;20.50;99.90;;;;;;5016506;28;19917;-65
2023/01/20 04:44:53;;;;;;;;;;;20.70;99.90;;;;;;5016160;28;20444;-65
2023/01/20 04:47:20;;;;;;;;;;;20.80;99.90;;;;;;5015308;28;19913;-64
2023/01/20 04:49:46;;;;;;;;;;;20.70;99.90;;;;;;5016474;28;19913;-65
2023/01/20 04:52:13;;;;;;;;;;;20.70;99.90;;;;;;5016085;28;19937;-66
2023/01/20 04:54:40;;;;;;;;;;;20.70;99.90;;;;;;5016381;28;19910;-65
2023/01/20 04:57:06;;;;;;;;;;;20.70;99.90;;;;;;5015808;28;20355;-65
2023/01/20 04:59:33;;;;;;;;;;;20.80;99.90;;;;;;5015850;28;20283;-67
2023/01/20 05:02:00;;;;;;;;;;;20.90;99.90;;;;;;5015428;28;19983;-66
2023/01/20 05:04:26;;;;;;;;;;;20.90;99.90;;;;;;5016372;28;20540;-65
2023/01/20 05:06:53;;;;;;;;;;;20.90;99.90;;;;;;5016090;28;19917;-66
2023/01/20 05:09:20;;;;;;;;;;;20.90;99.90;;;;;;5015803;28;19909;-66
2023/01/20 05:11:46;;;;;;;;;;;20.80;99.90;;;;;;5016225;28;20356;-65
2023/01/20 05:14:13;;;;;;;;;;;20.90;99.90;;;;;;5015885;28;19909;-66
2023/01/20 05:16:39;;;;;;;;;;;20.80;99.90;;;;;;5014855;28;19913;-65
2023/01/20 05:19:06;;;;;;;;;;;20.80;99.90;;;;;;5015841;28;20012;-65
2023/01/20 05:21:33;;;;;;;;;;;20.70;99.90;;;;;;5015631;28;19909;-65
2023/01/20 05:23:59;;;;;;;;;;;20.80;99.90;;;;;;5028659;28;19917;-65
2023/01/20 05:26:26;;;;;;;;;;;20.80;99.90;;;;;;5030823;28;19948;-65
2023/01/20 05:28:53;;;;;;;;;;;20.80;99.90;;;;;;5015291;28;20332;-66
2023/01/20 05:31:19;;;;;;;;;;;20.80;99.90;;;;;;5015053;28;20275;-66
2023/01/20 05:33:46;;;;;;;;;;;20.80;99.90;;;;;;5015245;28;19909;-66
2023/01/20 05:36:13;;;;;;;;;;;20.80;99.90;;;;;;5014819;28;19909;-66
2023/01/20 05:38:39;;;;;;;;;;;20.80;99.90;;;;;;5015023;28;19909;-66
2023/01/20 05:41:07;;;;;;;;;;;20.90;99.90;;;;;;5014335;28;19916;-67
2023/01/20 05:43:33;;;;;;;;;;;20.90;99.90;;;;;;5013611;28;19922;-66
2023/01/20 05:46:00;;;;;;;;;;;20.90;99.90;;;;;;5014938;28;19913;-66
2023/01/20 05:48:27;;;;;;;;;;;20.80;99.90;;;;;;5014800;28;19914;-66
2023/01/20 05:50:54;;;;;;;;;;;20.80;99.90;;;;;;5013833;28;19920;-67
2023/01/20 05:53:20;;;;;;;;;;;20.90;99.90;;;;;;5012673;28;19913;-66
2023/01/20 05:55:47;;;;;;;;;;;20.80;99.90;;;;;;5011842;28;19913;-66
2023/01/20 05:58:14;;;;;;;;;;;20.90;99.90;;;;;;5012550;28;20007;-68
2023/01/20 06:00:40;;;;;;;;;;;20.90;99.90;;;;;;5012927;28;19924;-72
2023/01/20 06:03:07;;;;;;;;;;;20.90;99.90;;;;;;5012769;28;20012;-77
2023/01/20 06:05:34;;;;;;;;;;;20.80;99.90;;;;;;5012234;28;20391;-75
2023/01/20 06:08:00;;;;;;;;;;;20.70;99.90;;;;;;5012030;28;19920;-70
2023/01/20 06:10:27;;;;;;;;;;;20.70;99.90;;;;;;5011466;28;19918;-66
2023/01/20 06:12:54;;;;;;;;;;;20.70;99.90;;;;;;5012443;28;20014;-65
2023/01/20 06:15:24;;;;;;;;;;;20.60;99.90;;;;;;5012347;28;19920;-65
2023/01/20 06:17:51;;;;;;;;;;;20.60;99.90;;;;;;5011608;28;19920;-65
2023/01/20 06:20:18;;;;;;;;;;;20.60;99.90;;;;;;5012302;28;19920;-66
2023/01/20 06:22:44;;;;;;;;;;;20.60;99.90;;;;;;5014928;28;19909;-65
2023/01/20 06:25:11;;;;;;;;;;;20.60;99.90;;;;;;5029798;28;20322;-65
2023/01/20 06:27:37;;;;;;;;;;;20.60;99.90;;;;;;5011852;28;19913;-65
2023/01/20 06:30:05;;;;;;;;;;;20.70;99.90;;;;;;5011939;28;19909;-65
2023/01/20 06:32:32;;;;;;;;;;;20.60;99.90;;;;;;5012406;28;19960;-65
2023/01/20 06:34:58;;;;;;;;;;;20.60;99.90;;;;;;5012260;28;19916;-65
2023/01/20 06:37:25;;;;;;;;;;;20.60;99.90;;;;;;5011774;28;19916;-64
2023/01/20 06:39:52;;;;;;;;;;;20.70;99.90;;;;;;5011789;28;20007;-65
2023/01/20 06:42:18;;;;;;;;;;;20.70;99.90;;;;;;4992901;28;19965;-68
2023/01/20 06:44:45;;;;;;;;;;;20.70;99.90;;;;;;4992461;28;19957;-66
2023/01/20 06:47:11;;;;;;;;;;;20.70;99.90;;;;;;4992542;28;19972;-65
2023/01/20 06:49:38;;;;;;;;;;;20.70;99.90;;;;;;4992684;28;19910;-65
2023/01/20 06:52:05;;;;;;;;;;;20.70;99.90;;;;;;4992660;28;19910;-66
2023/01/20 06:54:32;;;;;;;;;;;20.70;99.90;;;;;;4992618;28;19972;-65
2023/01/20 06:56:58;;;;;;;;;;;20.70;99.90;;;;;;5011496;28;19913;-66
2023/01/20 06:59:25;;;;;;;;;;;20.70;99.90;;;;;;5011280;28;19925;-66
2023/01/20 07:01:52;;;;;;;;;;;20.60;99.90;;;;;;5012205;28;19913;-65
2023/01/20 07:04:18;;;;;;;;;;;20.60;99.90;;;;;;5012224;28;19948;-65
2023/01/20 07:06:45;;;;;;;;;;;20.50;99.90;;;;;;5011678;28;19941;-66
2023/01/20 07:09:12;;;;;;;;;;;20.50;99.90;;;;;;5010994;28;19967;-66
2023/01/20 07:11:39;;;;;;;;;;;20.50;99.90;;;;;;5011213;28;19959;-70
2023/01/20 07:14:06;;;;;;;;;;;20.50;99.90;;;;;;5012066;28;19909;-65
2023/01/20 07:16:33;;;;;;;;;;;20.50;99.90;;;;;;5011440;28;19909;-65
2023/01/20 07:19:00;;;;;;;;;;;20.60;99.90;;;;;;5011802;28;20352;-66
2023/01/20 07:21:27;;;;;;;;;;;20.60;99.90;;;;;;5011540;28;20564;-66
2023/01/20 07:23:53;;;;;;;;;;;20.60;99.90;;;;;;5022951;28;19928;-69
2023/01/20 07:26:25;;;;;;;;;;;20.50;99.90;;;;;;5031123;28;19936;-73
2023/01/20 07:28:52;;;;;;;;;;;20.50;99.90;;;;;;5031589;28;19920;-68
2023/01/20 07:31:20;;;;;;;;;;;20.40;99.90;;;;;;5020112;28;19914;-67
2023/01/20 07:33:46;;;;;;;;;;;20.40;99.90;;;;;;5011701;28;19972;-66
2023/01/20 07:36:14;;;;;;;;;;;20.40;99.90;;;;;;5010704;28;19956;-65
2023/01/20 07:38:41;;;;;;;;;;;20.40;99.90;;;;;;5011627;28;20280;-76
2023/01/20 07:41:14;;;;;;;;;;;20.30;99.90;;;;;;5011322;28;19913;-77
2023/01/20 07:43:42;;;;;;;;;;;20.30;99.90;;;;;;5011411;28;19913;-76
2023/01/20 07:46:08;;;;;;;;;;;20.20;99.90;;;;;;5010474;28;19925;-75
2023/01/20 07:48:35;;;;;;;;;;;20.10;99.90;;;;;;5010052;28;19914;-76
2023/01/20 07:51:06;;;;;;;;;;;20.00;99.90;;;;;;5009593;28;19913;-79
2023/01/20 07:53:34;;;;;;;;;;;20.00;99.90;;;;;;5010766;28;19964;-76
2023/01/20 07:56:02;;;;;;;;;;;20.00;99.90;;;;;;5011073;28;19909;-80
2023/01/20 07:58:28;;;;;;;;;;;19.90;99.90;;;;;;5011103;28;19921;-79
2023/01/20 08:00:55;;;;;;;;;;;20.00;99.90;;;;;;5011243;28;19914;-76
2023/01/20 08:03:22;;;;;;;;;;;19.90;99.90;;;;;;5010603;28;19917;-79
2023/01/20 08:05:49;;;;;;;;;;;19.90;99.90;;;;;;5010158;28;20442;-76
2023/01/20 08:08:15;;;;;;;;;;;19.80;99.90;;;;;;5009310;28;19913;-78
2023/01/20 08:10:42;;;;;;;;;;;19.70;99.90;;;;;;5012456;28;19909;-80
2023/01/20 08:13:10;;;;;;;;;;;19.70;99.90;;;;;;5016102;28;19909;-81
2023/01/20 08:15:36;;;;;;;;;;;19.70;99.90;;;;;;5007111;28;19956;-81
2023/01/20 08:18:03;;;;;;;;;;;19.80;99.90;;;;;;5008855;28;19972;-78
2023/01/20 08:20:29;;;;;;;;;;;19.80;99.90;;;;;;5007552;28;19931;-76
2023/01/20 08:22:56;;;;;;;;;;;19.80;99.90;;;;;;5012699;28;20390;-66
2023/01/20 08:25:23;;;;;;;;;;;19.90;99.90;;;;;;5027743;28;20506;-69
2023/01/20 08:27:49;;;;;;;;;;;20.00;99.90;;;;;;5027462;28;19920;-66
2023/01/20 08:30:16;;;;;;;;;;;20.10;99.90;;;;;;5028329;28;19956;-68
2023/01/20 08:32:43;;;;;;;;;;;20.10;99.90;;;;;;5027944;28;19920;-69
2023/01/20 08:35:09;;;;;;;;;;;20.20;99.90;;;;;;5016052;28;19917;-77
2023/01/20 08:37:36;;;;;;;;;;;20.20;99.90;;;;;;5007475;28;19921;-78
2023/01/20 08:40:05;;;;;;;;;;;20.20;99.90;;;;;;5007829;28;19914;-70
2023/01/20 08:42:31;;;;;;;;;;;20.20;99.90;;;;;;5006857;28;20035;-67
2023/01/20 08:44:58;;;;;;;;;;;20.20;99.90;;;;;;5008766;28;19921;-69
2023/01/20 08:47:25;;;;;;;;;;;20.30;99.90;;;;;;5007439;28;19913;-66
2023/01/20 08:49:52;;;;;;;;;;;20.20;99.90;;;;;;5007948;28;19920;-66
2023/01/20 08:52:19;;;;;;;;;;;20.20;99.90;;;;;;5007777;28;20004;-65
2023/01/20 08:54:46;;;;;;;;;;;20.10;99.90;;;;;;5007845;28;20482;-66
2023/01/20 08:57:14;;;;;;;;;;;20.10;99.90;;;;;;5007124;28;19959;-67
2023/01/20 08:59:41;;;;;;;;;;;20.10;99.90;;;;;;5006931;28;20003;-66
2023/01/20 09:02:09;;;;;;;;;;;20.00;99.90;;;;;;5007099;28;20288;-66
2023/01/20 09:04:36;;;;;;;;;;;20.00;99.90;;;;;;5007820;28;19922;-66
2023/01/20 09:07:03;;;;;;;;;;;19.90;99.90;;;;;;5006904;28;19913;-65
2023/01/20 09:09:30;;;;;;;;;;;19.80;99.90;;;;;;5007662;28;19956;-65
2023/01/20 09:11:57;;;;;;;;;;;19.80;99.90;;;;;;5007009;28;19922;-66
2023/01/20 09:14:24;;;;;;;;;;;19.90;99.90;;;;;;5007560;28;20701;-65
2023/01/20 09:16:51;;;;;;;;;;;19.90;99.90;;;;;;5007138;28;20363;-72
2023/01/20 09:19:17;;;;;;;;;;;19.90;99.90;;;;;;5006736;28;20330;-71
2023/01/20 09:21:44;;;;;;;;;;;19.90;99.90;;;;;;5006463;28;19913;-65
2023/01/20 09:24:11;;;;;;;;;;;19.90;99.90;;;;;;5021561;28;19927;-66
2023/01/20 09:26:39;;;;;;;;;;;19.90;99.90;;;;;;5020338;28;19949;-70
2023/01/20 09:29:09;;;;;;;;;;;19.90;99.90;;;;;;5006853;28;19921;-66
2023/01/20 09:31:42;;;;;;;;;;;19.90;99.90;;;;;;5006661;28;19924;-65
2023/01/20 09:34:09;;;;;;;;;;;19.90;99.90;;;;;;5006551;28;19922;-64
2023/01/20 09:36:36;;;;;;;;;;;19.90;99.90;;;;;;5006651;28;19919;-74
2023/01/20 09:44:42;;;;;;;;;;;19.80;99.90;;;;;;5007184;28;19931;-71
2023/01/20 09:47:20;;;;;;;;;;;19.80;99.90;;;;;;5006199;28;20547;-66
2023/01/20 09:53:05;;;;;;;;;;;19.80;99.90;;;;;;5006925;28;19921;-65
2023/01/20 09:55:34;;;;;;;;;;;19.80;99.90;;;;;;5005609;28;20780;-65
2023/01/20 09:58:07;;;;;;;;;;;19.80;99.90;;;;;;4990659;28;20024;-66
2023/01/20 10:00:34;;;;;;;;;;;19.80;99.90;;;;;;5006674;28;20627;-66
2023/01/20 10:03:35;;;;;;;;;;;19.80;99.90;;;;;;5006350;28;19963;-70
2023/01/20 10:06:09;;;;;;;;;;;19.80;99.90;;;;;;4972691;28;19917;-76
2023/01/20 10:08:41;;;;;;;;;;;19.80;99.90;;;;;;5006438;28;20062;-66
2023/01/20 10:11:13;;;;;;;;;;;19.80;99.90;;;;;;5006675;28;19918;-67
2023/01/20 10:14:02;;;;;;;;;;;19.80;99.90;;;;;;5006314;28;19921;-66
2023/01/20 10:16:37;;;;;;;;;;;19.70;99.90;;;;;;4997949;28;20375;-70
2023/01/20 10:19:25;;;;;;;;;;;19.80;99.90;;;;;;4988448;28;20299;-69
2023/01/20 10:21:57;;;;;;;;;;;19.80;99.90;;;;;;5005507;28;20462;-70
2023/01/20 10:24:28;;;;;;;;;;;19.80;99.90;;;;;;5022546;28;19921;-66
2023/01/20 10:27:04;;;;;;;;;;;19.80;99.90;;;;;;5025763;28;19913;-72
2023/01/20 10:29:34;;;;;;;;;;;19.70;99.90;;;;;;5025939;28;19959;-65
2023/01/20 10:32:02;;;;;;;;;;;19.70;99.90;;;;;;5026038;28;20410;-66
2023/01/20 10:34:32;;;;;;;;;;;19.80;99.90;;;;;;5024918;28;19917;-66
2023/01/20 10:37:09;;;;;;;;;;;19.80;99.90;;;;;;5011141;28;20572;-66
2023/01/20 10:39:39;;;;;;;;;;;19.80;99.90;;;;;;5005868;28;20008;-76
2023/01/20 10:42:27;;;;;;;;;;;19.70;99.90;;;;;;5006521;28;20150;-66
2023/01/20 10:44:54;;;;;;;;;;;19.50;99.90;;;;;;5006010;28;20414;-65
2023/01/20 10:47:20;;;;;;;;;;;19.30;99.90;;;;;;5006073;28;19917;-70
2023/01/20 10:49:48;;;;;;;;;;;19.20;99.90;;;;;;5006053;28;19951;-65
2023/01/20 10:52:25;;;;;;;;;;;19.10;99.90;;;;;;5004899;28;19918;-65
2023/01/20 10:54:51;;;;;;;;;;;19.10;99.90;;;;;;5006227;28;19913;-66
2023/01/20 10:57:18;;;;;;;;;;;18.90;99.90;;;;;;5005553;28;19956;-66
2023/01/20 10:59:47;;;;;;;;;;;18.80;99.90;;;;;;5005864;28;20352;-65
2023/01/20 11:02:19;;;;;;;;;;;18.70;99.90;;;;;;5005697;28;19913;-70
2023/01/20 11:04:49;;;;;;;;;;;18.70;99.90;;;;;;5005274;28;19921;-65
2023/01/20 11:07:16;;;;;;;;;;;18.70;99.90;;;;;;5005045;28;20356;-66
2023/01/20 11:09:43;;;;;;;;;;;18.70;99.90;;;;;;5005906;28;19935;-65
2023/01/20 11:12:13;;;;;;;;;;;18.70;99.90;;;;;;5005502;28;20019;-65
2023/01/20 11:14:40;;;;;;;;;;;18.70;99.90;;;;;;5005718;28;19928;-65
2023/01/20 11:17:12;;;;;;;;;;;18.70;99.90;;;;;;5004990;28;19913;-69
2023/01/20 11:19:45;;;;;;;;;;;18.60;99.90;;;;;;5004812;28;19921;-66
2023/01/20 11:22:21;;;;;;;;;;;18.50;99.90;;;;;;5005387;28;19920;-66
2023/01/20 11:24:48;;;;;;;;;;;18.60;99.90;;;;;;5006268;28;20370;-66
2023/01/20 11:27:19;;;;;;;;;;;18.60;99.90;;;;;;5004462;28;20420;-69
2023/01/20 11:29:49;;;;;;;;;;;18.60;99.90;;;;;;5005375;28;19913;-66
2023/01/20 11:32:29;;;;;;;;;;;18.70;99.90;;;;;;5005460;28;19959;-79
2023/01/20 11:34:56;;;;;;;;;;;18.70;99.90;;;;;;5004526;28;20435;-67
2023/01/20 11:37:26;;;;;;;;;;;18.50;99.90;;;;;;5002772;28;19917;-66
2023/01/20 11:39:53;;;;;;;;;;;18.40;99.90;;;;;;5005403;28;19948;-76
2023/01/20 11:42:21;;;;;;;;;;;18.30;99.90;;;;;;5005309;28;19913;-69
2023/01/20 11:44:49;;;;;;;;;;;18.20;99.90;;;;;;5003501;28;19933;-66
2023/01/20 11:47:21;;;;;;;;;;;18.10;99.90;;;;;;5003722;28;19913;-66
2023/01/20 11:50:05;;;;;;;;;;;18.10;99.90;;;;;;5004882;28;19926;-66
2023/01/20 11:52:32;;;;;;;;;;;18.00;99.90;;;;;;5005465;28;19921;-68
2023/01/20 11:55:09;;;;;;;;;;;18.00;99.90;;;;;;5005123;28;19914;-65
2023/01/20 11:57:43;;;;;;;;;;;18.00;99.90;;;;;;5004781;28;19936;-66
2023/01/20 12:00:16;;;;;;;;;;;18.00;99.90;;;;;;5004389;28;19932;-66
2023/01/20 12:02:43;;;;;;;;;;;18.00;99.90;;;;;;5004150;28;19925;-75
2023/01/20 12:05:24;;;;;;;;;;;18.00;99.90;;;;;;5004450;28;20360;-65
2023/01/20 12:07:51;;;;;;;;;;;18.00;99.90;;;;;;5004938;28;19920;-65
2023/01/20 12:10:21;;;;;;;;;;;18.10;99.90;;;;;;5004770;28;19913;-65
2023/01/20 12:12:50;;;;;;;;;;;18.20;99.90;;;;;;5005182;28;19917;-71
2023/01/20 12:15:25;;;;;;;;;;;18.10;99.90;;;;;;5003578;28;19921;-66
2023/01/20 12:17:55;;;;;;;;;;;18.20;99.90;;;;;;5004885;28;19946;-65
2023/01/20 12:20:25;;;;;;;;;;;18.30;99.90;;;;;;5004766;28;19921;-69
2023/01/20 12:22:51;;;;;;;;;;;18.40;99.90;;;;;;5008289;28;19940;-66
2023/01/20 12:25:23;;;;;;;;;;;18.30;99.90;;;;;;5023812;28;20441;-66
2023/01/20 12:27:55;;;;;;;;;;;18.40;99.90;;;;;;5024445;28;19913;-65
2023/01/20 12:30:30;;;;;;;;;;;18.40;99.90;;;;;;5011979;28;19917;-65
2023/01/20 12:32:57;;;;;;;;;;;18.30;99.90;;;;;;5004186;28;20028;-67
2023/01/20 12:35:27;;;;;;;;;;;18.20;99.90;;;;;;5003866;28;19960;-70
2023/01/20 12:37:55;;;;;;;;;;;18.20;99.90;;;;;;5004155;28;20415;-66
2023/01/20 12:40:40;;;;;;;;;;;18.20;99.90;;;;;;5003932;28;20372;-73
2023/01/20 12:43:06;;;;;;;;;;;18.20;99.90;;;;;;5005281;28;19913;-74
2023/01/20 12:45:38;;;;;;;;;;;18.30;99.90;;;;;;5012789;28;19913;-65
2023/01/20 12:48:05;;;;;;;;;;;18.30;99.90;;;;;;5013171;28;19909;-65
2023/01/20 12:50:47;;;;;;;;;;;18.40;99.90;;;;;;5013015;28;20011;-66
2023/01/20 12:53:29;;;;;;;;;;;18.30;99.90;;;;;;5012916;28;19910;-66
2023/01/20 12:56:08;;;;;;;;;;;18.20;99.90;;;;;;5011761;28;20004;-65
2023/01/20 12:58:41;;;;;;;;;;;18.00;99.90;;;;;;5016144;28;19926;-67
2023/01/20 13:01:14;;;;;;;;;;;18.00;99.90;;;;;;5016655;28;19913;-69
2023/01/20 13:03:59;;;;;;;;;;;18.10;99.90;;;;;;5016597;28;19913;-67
2023/01/20 13:06:44;;;;;;;;;;;18.10;99.90;;;;;;5016513;28;19964;-65
2023/01/20 13:09:16;;;;;;;;;;;18.00;99.90;;;;;;5015861;28;19913;-66
2023/01/20 13:11:58;;;;;;;;;;;17.90;99.90;;;;;;5016512;28;19933;-66
2023/01/20 13:14:30;;;;;;;;;;;17.80;99.90;;;;;;5016468;28;20323;-69
2023/01/20 13:17:03;;;;;;;;;;;17.90;99.90;;;;;;5016128;28;20395;-68
2023/01/20 13:19:36;;;;;;;;;;;17.80;99.90;;;;;;5016010;28;20292;-68
2023/01/20 13:22:17;;;;;;;;;;;17.90;99.90;;;;;;5016116;28;19996;-74
2023/01/20 13:24:46;;;;;;;;;;;17.90;99.90;;;;;;5025374;28;19928;-69
2023/01/20 13:27:14;;;;;;;;;;;17.90;99.90;;;;;;5015642;28;19967;-69
2023/01/20 13:29:41;;;;;;;;;;;17.80;99.90;;;;;;5016180;28;19996;-71
2023/01/20 13:32:25;;;;;;;;;;;17.80;99.90;;;;;;5016125;28;19966;-67
2023/01/20 13:34:52;;;;;;;;;;;17.80;99.90;;;;;;5015933;28;19909;-73
2023/01/20 13:37:27;;;;;;;;;;;17.80;99.90;;;;;;5015510;28;19916;-67
2023/01/20 13:39:56;;;;;;;;;;;17.80;99.90;;;;;;5015093;28;19916;-68
2023/01/20 13:42:23;;;;;;;;;;;17.80;99.90;;;;;;5015722;28;19913;-70
2023/01/20 13:45:09;;;;;;;;;;;17.80;99.90;;;;;;5031055;28;19925;-66
2023/01/20 13:47:51;;;;;;;;;;;17.80;99.90;;;;;;5005275;28;19909;-72
2023/01/20 13:50:27;;;;;;;;;;;17.80;99.90;;;;;;5015633;28;20416;-70
2023/01/20 13:52:57;;;;;;;;;;;17.80;99.90;;;;;;5015721;28;19943;-66
2023/01/20 13:55:47;;;;;;;;;;;17.80;99.90;;;;;;5013464;28;19917;-66
2023/01/20 13:58:18;;;;;;;;;;;17.80;99.90;;;;;;5007697;28;20004;-66
2023/01/20 14:00:45;;;;;;;;;;;17.80;99.90;;;;;;5015585;28;19916;-67
2023/01/20 14:03:28;;;;;;;;;;;17.80;99.90;;;;;;5015319;28;20005;-66
2023/01/20 14:05:56;;;;;;;;;;;17.80;99.90;;;;;;5014932;28;20344;-65
2023/01/20 14:08:24;;;;;;;;;;;17.80;99.90;;;;;;4997056;28;20319;-65
2023/01/20 14:10:50;;;;;;;;;;;17.70;99.90;;;;;;5014629;28;19913;-65
2023/01/20 14:13:21;;;;;;;;;;;17.80;99.90;;;;;;5013811;28;19925;-68
2023/01/20 14:15:52;;;;;;;;;;;17.80;99.90;;;;;;5014817;28;19916;-65
2023/01/20 14:18:20;;;;;;;;;;;17.80;99.90;;;;;;5015200;28;19928;-64
2023/01/20 14:20:57;;;;;;;;;;;17.70;99.90;;;;;;5014523;28;19917;-65
2023/01/20 14:23:25;;;;;;;;;;;17.80;99.90;;;;;;5005310;28;20378;-68
2023/01/20 14:26:24;;;;;;;;;;;17.70;99.90;;;;;;5034550;28;20379;-66
2023/01/20 14:28:52;;;;;;;;;;;17.80;99.90;;;;;;5012054;28;20383;-72
2023/01/20 14:31:25;;;;;;;;;;;17.80;99.90;;;;;;5034538;28;19909;-66
2023/01/20 14:33:54;;;;;;;;;;;17.80;99.90;;;;;;5034586;28;19910;-66
2023/01/20 14:36:22;;;;;;;;;;;17.70;99.90;;;;;;5034240;28;19909;-66
2023/01/20 14:38:50;;;;;;;;;;;17.70;99.90;;;;;;5034603;28;19932;-72